Time;durP1;ratioP1;P1;durP2;ratioP2;P2;SDS_P1;SDS_P2;PMS_P1;PMS_P2;Temp;Humidity;BMP_temperature;BMP_pressure;BME280_temperature;BME280_humidity;BME280_pressure;Samples;Min_cycle;Max_cycle;Signal;HPM_P1;HPM_P2
2023/04/27 00:00:28;;;;;;;0.80;0.80;;;13.80;76.90;;;;;;4934010;29;20675;-78
2023/04/27 00:02:57;;;;;;;3.10;1.40;;;13.80;77.20;;;;;;4927531;29;20266;-78
2023/04/27 00:05:26;;;;;;;1.43;0.80;;;13.80;77.00;;;;;;4936348;29;20199;-79
2023/04/27 00:07:54;;;;;;;1.30;0.70;;;13.80;77.00;;;;;;4935591;29;20668;-78
2023/04/27 00:10:23;;;;;;;1.60;1.50;;;13.80;76.90;;;;;;4929952;29;20209;-79
2023/04/27 00:12:51;;;;;;;0.40;0.30;;;13.80;76.90;;;;;;4933094;29;20198;-79
2023/04/27 00:15:21;;;;;;;0.77;0.47;;;13.80;77.00;;;;;;4929836;29;20216;-79
2023/04/27 00:17:50;;;;;;;1.30;0.57;;;13.80;76.60;;;;;;4933181;29;20618;-80
2023/04/27 00:20:19;;;;;;;2.00;1.13;;;13.80;76.30;;;;;;4934572;29;20211;-78
2023/04/27 00:22:47;;;;;;;1.60;0.73;;;13.80;77.00;;;;;;4933573;29;20198;-80
2023/04/27 00:25:16;;;;;;;1.30;0.83;;;13.80;76.10;;;;;;4933107;29;20204;-79
2023/04/27 00:27:44;;;;;;;0.90;0.77;;;13.80;76.10;;;;;;4931049;29;20203;-77
2023/04/27 00:30:13;;;;;;;1.47;0.87;;;13.70;75.70;;;;;;4931105;29;20231;-79
2023/04/27 00:32:42;;;;;;;0.80;0.70;;;13.80;75.80;;;;;;4928232;29;20203;-78
2023/04/27 00:35:11;;;;;;;1.70;0.90;;;13.80;76.00;;;;;;4937976;29;20222;-79
2023/04/27 00:37:39;;;;;;;1.20;1.10;;;13.80;76.00;;;;;;4918631;29;20686;-80
2023/04/27 00:40:09;;;;;;;0.83;0.63;;;13.80;75.90;;;;;;4926281;29;20198;-78
2023/04/27 00:42:37;;;;;;;0.50;0.50;;;13.80;75.70;;;;;;4924327;29;20199;-77
2023/04/27 00:45:06;;;;;;;1.37;1.23;;;13.80;75.70;;;;;;4927660;29;20603;-80
2023/04/27 00:47:35;;;;;;;1.07;0.83;;;13.80;75.30;;;;;;4928841;29;20561;-80
2023/04/27 00:50:07;;;;;;;0.47;0.47;;;13.80;75.20;;;;;;4931235;29;20219;-79
2023/04/27 00:52:37;;;;;;;1.10;0.77;;;13.70;74.60;;;;;;4927190;29;20195;-79
2023/04/27 00:55:07;;;;;;;0.53;0.53;;;13.80;74.50;;;;;;4921028;29;20267;-79
2023/04/27 00:57:36;;;;;;;5.53;0.70;;;13.80;74.70;;;;;;4927273;29;20207;-79
2023/04/27 01:00:06;;;;;;;1.47;1.00;;;13.80;74.70;;;;;;4930980;29;20655;-78
2023/04/27 01:02:36;;;;;;;0.60;0.60;;;13.80;74.70;;;;;;4924677;29;20242;-79
2023/04/27 01:05:13;;;;;;;6.17;1.20;;;13.80;75.00;;;;;;4925965;29;20211;-78
2023/04/27 01:07:42;;;;;;;0.50;0.50;;;13.70;75.00;;;;;;4925817;29;20607;-78
2023/04/27 01:10:11;;;;;;;1.87;0.80;;;13.80;75.00;;;;;;4927769;29;20649;-79
2023/04/27 01:12:39;;;;;;;0.60;0.53;;;13.80;75.10;;;;;;4932359;29;20617;-78
2023/04/27 01:15:10;;;;;;;1.50;0.67;;;13.70;75.00;;;;;;4928938;29;20223;-80
2023/04/27 01:17:38;;;;;;;1.13;0.87;;;13.80;75.10;;;;;;4925737;29;20198;-80
2023/04/27 01:20:09;;;;;;;1.40;0.80;;;13.70;75.10;;;;;;4935296;29;20198;-80
2023/04/27 01:22:38;;;;;;;0.80;0.67;;;13.70;75.10;;;;;;4928737;29;20674;-78
2023/04/27 01:25:09;;;;;;;3.23;0.80;;;13.80;75.20;;;;;;4929922;29;20312;-79
2023/04/27 01:27:38;;;;;;;0.97;0.70;;;13.80;75.10;;;;;;4933121;29;20295;-79
2023/04/27 01:30:07;;;;;;;0.93;0.90;;;13.80;75.10;;;;;;4936786;29;20242;-80
2023/04/27 01:32:37;;;;;;;2.07;0.80;;;13.80;74.70;;;;;;4930901;29;20203;-80
2023/04/27 01:35:06;;;;;;;0.93;0.63;;;13.80;74.50;;;;;;4935522;29;20273;-79
2023/04/27 01:37:38;;;;;;;1.27;0.63;;;13.80;74.80;;;;;;4924780;29;20294;-80
2023/04/27 01:40:10;;;;;;;3.80;1.40;;;13.80;75.00;;;;;;4923319;29;20652;-78
2023/04/27 01:42:39;;;;;;;1.53;1.03;;;13.80;74.50;;;;;;4938436;29;20194;-80
2023/04/27 01:45:09;;;;;;;0.80;0.70;;;13.80;74.40;;;;;;4936419;29;20559;-80
2023/04/27 01:47:37;;;;;;;1.30;0.63;;;13.80;74.30;;;;;;4933612;29;20206;-79
2023/04/27 01:50:07;;;;;;;0.60;0.60;;;13.80;74.50;;;;;;4929343;29;20202;-80
2023/04/27 01:52:35;;;;;;;2.27;1.37;;;13.80;74.50;;;;;;4927381;29;20199;-79
2023/04/27 01:55:04;;;;;;;6.53;0.90;;;13.80;74.50;;;;;;4937889;29;20268;-78
2023/04/27 01:57:34;;;;;;;1.23;0.77;;;13.80;74.40;;;;;;4928447;29;20222;-80
2023/04/27 02:00:04;;;;;;;1.40;1.03;;;13.80;74.40;;;;;;4935424;29;20619;-80
2023/04/27 02:02:32;;;;;;;0.73;0.73;;;13.80;74.60;;;;;;4921013;29;20657;-80
2023/04/27 02:05:01;;;;;;;2.30;0.67;;;13.80;74.50;;;;;;4932970;29;20970;-80
2023/04/27 02:07:29;;;;;;;2.90;1.30;;;13.80;74.40;;;;;;4926905;29;20266;-80
2023/04/27 02:09:57;;;;;;;0.50;0.50;;;13.80;74.20;;;;;;4937307;29;20247;-79
2023/04/27 02:12:26;;;;;;;9.37;1.63;;;13.80;74.20;;;;;;4924912;29;20656;-78
2023/04/27 02:14:57;;;;;;;0.40;0.40;;;13.80;74.20;;;;;;4930860;29;20218;-78
2023/04/27 02:17:28;;;;;;;0.70;0.60;;;13.70;75.00;;;;;;4927647;29;20215;-80
2023/04/27 02:19:56;;;;;;;1.87;1.07;;;13.70;74.10;;;;;;4935201;29;20281;-79
2023/04/27 02:22:24;;;;;;;1.00;0.77;;;13.70;74.20;;;;;;4936602;29;20207;-80
2023/04/27 02:24:53;;;;;;;0.67;0.63;;;13.80;74.30;;;;;;4927661;29;20294;-80
2023/04/27 02:27:21;;;;;;;1.90;0.87;;;13.70;74.20;;;;;;4922689;29;20207;-79
2023/04/27 02:29:50;;;;;;;0.67;0.63;;;13.70;74.20;;;;;;4923472;29;20282;-80
2023/04/27 02:32:22;;;;;;;2.37;0.87;;;13.70;74.30;;;;;;4934058;29;20211;-79
2023/04/27 02:34:51;;;;;;;1.07;0.80;;;13.70;74.20;;;;;;4934189;29;20286;-79
2023/04/27 02:37:19;;;;;;;2.67;0.80;;;13.70;74.20;;;;;;4933229;29;20664;-79
2023/04/27 02:39:47;;;;;;;1.43;0.80;;;13.80;74.40;;;;;;4935131;29;20246;-79
2023/04/27 02:42:16;;;;;;;0.90;0.83;;;13.70;74.40;;;;;;4938010;29;20234;-80
2023/04/27 02:44:44;;;;;;;1.77;0.90;;;13.80;74.40;;;;;;4930403;29;20676;-81
2023/04/27 02:47:13;;;;;;;0.40;0.40;;;13.80;74.20;;;;;;4923616;29;20548;-79
2023/04/27 02:49:43;;;;;;;1.07;0.67;;;13.80;74.30;;;;;;4925497;29;20230;-82
2023/04/27 02:52:11;;;;;;;0.87;0.60;;;13.70;73.10;;;;;;4927764;29;20272;-78
2023/04/27 02:54:40;;;;;;;2.10;0.90;;;13.70;72.70;;;;;;4937780;29;20207;-80
2023/04/27 02:57:08;;;;;;;1.80;1.10;;;13.70;73.00;;;;;;4926950;29;20593;-78
2023/04/27 02:59:36;;;;;;;2.27;0.70;;;13.70;72.70;;;;;;4930166;29;20207;-80
2023/04/27 03:02:04;;;;;;;0.73;0.60;;;13.70;72.90;;;;;;4938347;29;20202;-79
2023/04/27 03:04:33;;;;;;;0.60;0.60;;;13.70;73.20;;;;;;4925903;29;20214;-82
2023/04/27 03:07:03;;;;;;;3.07;0.70;;;13.70;73.30;;;;;;4928687;29;20199;-80
2023/04/27 03:09:31;;;;;;;1.57;0.93;;;13.70;73.30;;;;;;4941602;29;20206;-80
2023/04/27 03:11:59;;;;;;;1.47;1.07;;;13.70;74.00;;;;;;4935502;29;20208;-79
2023/04/27 03:14:28;;;;;;;3.23;1.57;;;13.80;74.80;;;;;;4927239;29;20204;-79
2023/04/27 03:16:56;;;;;;;1.17;0.80;;;13.70;76.00;;;;;;4925076;29;20266;-80
2023/04/27 03:19:24;;;;;;;3.50;1.77;;;13.70;77.50;;;;;;4930912;29;20203;-80
2023/04/27 03:21:53;;;;;;;2.40;1.17;;;13.60;77.90;;;;;;4935740;29;20203;-79
2023/04/27 03:24:24;;;;;;;1.53;1.10;;;13.60;78.30;;;;;;4935703;29;20672;-82
2023/04/27 03:26:52;;;;;;;0.70;0.50;;;13.50;79.90;;;;;;4940323;29;20655;-77
2023/04/27 03:29:21;;;;;;;1.73;1.60;;;13.40;80.10;;;;;;4938595;29;20305;-81
2023/04/27 03:31:49;;;;;;;2.27;1.03;;;13.40;80.60;;;;;;4933827;29;20233;-80
2023/04/27 03:34:19;;;;;;;0.90;0.87;;;13.40;80.80;;;;;;4938130;29;20544;-82
2023/04/27 03:36:48;;;;;;;1.97;1.67;;;13.40;82.00;;;;;;4928187;29;20215;-81
2023/04/27 03:39:16;;;;;;;2.03;1.17;;;13.40;81.80;;;;;;4935675;29;20205;-81
2023/04/27 03:41:46;;;;;;;4.33;2.03;;;13.30;82.70;;;;;;4935964;29;20209;-80
2023/04/27 03:44:14;;;;;;;1.90;1.17;;;13.30;82.50;;;;;;4940238;29;20206;-81
2023/04/27 03:46:43;;;;;;;5.77;1.90;;;13.30;82.70;;;;;;4931419;29;20196;-79
2023/04/27 03:49:11;;;;;;;2.17;1.03;;;13.30;83.00;;;;;;4934103;29;20685;-81
2023/04/27 03:51:41;;;;;;;3.00;1.23;;;13.20;83.50;;;;;;4923868;29;20289;-81
2023/04/27 03:54:09;;;;;;;1.23;0.90;;;13.20;83.70;;;;;;4929097;29;20207;-79
2023/04/27 03:56:38;;;;;;;1.40;0.93;;;13.10;83.70;;;;;;4926141;29;20247;-80
2023/04/27 03:59:08;;;;;;;2.83;1.10;;;13.10;83.80;;;;;;4934288;29;20656;-84
2023/04/27 04:01:38;;;;;;;1.87;0.90;;;13.10;84.10;;;;;;4930668;29;20203;-81
2023/04/27 04:04:07;;;;;;;1.27;0.80;;;13.00;84.10;;;;;;4944667;29;20610;-81
2023/04/27 04:06:36;;;;;;;1.90;1.40;;;13.00;84.10;;;;;;4930664;29;20191;-79
2023/04/27 04:09:04;;;;;;;2.33;1.23;;;13.00;83.90;;;;;;4937996;29;20203;-80
2023/04/27 04:11:33;;;;;;;2.10;1.10;;;13.00;84.30;;;;;;4929017;29;20258;-80
2023/04/27 04:14:01;;;;;;;1.20;1.07;;;13.00;84.40;;;;;;4928389;29;20582;-80
2023/04/27 04:16:33;;;;;;;2.37;1.93;;;13.00;84.50;;;;;;4925980;29;20223;-80
2023/04/27 04:19:01;;;;;;;1.73;1.17;;;13.00;84.50;;;;;;4923037;29;20215;-81
2023/04/27 04:21:30;;;;;;;1.63;0.97;;;13.00;84.30;;;;;;4922839;29;20230;-80
2023/04/27 04:23:59;;;;;;;1.80;1.53;;;13.00;84.80;;;;;;4930906;29;20219;-80
2023/04/27 04:26:27;;;;;;;1.97;1.20;;;13.00;84.50;;;;;;4933730;29;20730;-81
2023/04/27 04:28:56;;;;;;;5.10;1.53;;;13.00;85.00;;;;;;4929097;29;20245;-79
2023/04/27 04:31:25;;;;;;;1.87;1.40;;;12.90;85.20;;;;;;4929397;28;20235;-78
2023/04/27 04:33:55;;;;;;;1.70;1.43;;;12.90;85.30;;;;;;4929364;29;20550;-80
2023/04/27 04:36:24;;;;;;;1.03;0.83;;;12.90;85.00;;;;;;4919683;29;20216;-81
2023/04/27 04:38:53;;;;;;;3.97;1.38;;;12.90;84.90;;;;;;4936332;29;20457;-81
2023/04/27 04:41:22;;;;;;;1.77;0.93;;;12.90;85.00;;;;;;4928149;29;20208;-79
2023/04/27 04:43:50;;;;;;;2.13;1.23;;;12.80;85.90;;;;;;4928457;29;20663;-80
2023/04/27 04:46:21;;;;;;;1.00;0.70;;;12.90;85.30;;;;;;4928755;29;20270;-80
2023/04/27 04:48:49;;;;;;;0.93;0.70;;;12.90;85.00;;;;;;4922821;29;20203;-79
2023/04/27 04:51:21;;;;;;;3.72;1.13;;;12.90;85.00;;;;;;4923133;29;20540;-82
2023/04/27 04:53:50;;;;;;;2.50;1.33;;;12.90;86.20;;;;;;4922061;29;20203;-80
2023/04/27 04:56:18;;;;;;;1.10;0.67;;;12.90;85.50;;;;;;4930773;29;20227;-80
2023/04/27 04:58:46;;;;;;;2.17;1.40;;;13.00;85.50;;;;;;4926586;29;20278;-80
2023/04/27 05:01:15;;;;;;;1.40;0.93;;;13.00;85.40;;;;;;4934458;29;20199;-81
2023/04/27 05:03:43;;;;;;;1.77;0.70;;;13.00;85.40;;;;;;4932484;29;20198;-83
2023/04/27 05:06:12;;;;;;;1.60;0.73;;;13.00;85.20;;;;;;4927457;29;20278;-79
2023/04/27 05:08:42;;;;;;;2.00;1.47;;;13.10;85.20;;;;;;4931283;29;20226;-81
2023/04/27 05:11:10;;;;;;;4.67;1.50;;;13.10;85.30;;;;;;4928045;29;20235;-80
2023/04/27 05:13:39;;;;;;;1.93;1.30;;;13.10;85.30;;;;;;4928507;28;20273;-79
2023/04/27 05:16:08;;;;;;;1.20;0.93;;;13.20;85.30;;;;;;4928933;29;20282;-80
2023/04/27 05:18:36;;;;;;;5.20;1.50;;;13.10;85.70;;;;;;4927525;29;20678;-81
2023/04/27 05:21:06;;;;;;;3.53;1.53;;;13.10;85.90;;;;;;4931245;29;20281;-82
2023/04/27 05:23:34;;;;;;;1.77;1.57;;;13.00;85.80;;;;;;4932488;29;20229;-81
2023/04/27 05:26:11;;;;;;;3.30;1.40;;;13.00;85.80;;;;;;4931405;29;20223;-84
2023/04/27 05:28:40;;;;;;;3.10;1.30;;;13.00;85.70;;;;;;4939443;29;20564;-79
2023/04/27 05:31:11;;;;;;;0.80;0.80;;;13.10;85.60;;;;;;4923674;29;20583;-79
2023/04/27 05:33:40;;;;;;;5.63;1.17;;;13.10;85.60;;;;;;4925193;29;20203;-78
2023/04/27 05:36:09;;;;;;;1.30;0.97;;;13.10;85.50;;;;;;4927371;29;20203;-79
2023/04/27 05:38:39;;;;;;;3.40;1.77;;;13.10;85.20;;;;;;4929943;29;20223;-84
2023/04/27 05:41:09;;;;;;;1.70;1.20;;;13.10;85.20;;;;;;4931131;29;20203;-79
2023/04/27 05:43:40;;;;;;;2.77;0.93;;;13.20;85.50;;;;;;4932808;29;20213;-80
2023/04/27 05:46:10;;;;;;;1.77;1.20;;;13.10;85.60;;;;;;4926536;29;20196;-80
2023/04/27 05:48:38;;;;;;;2.23;1.20;;;13.20;85.60;;;;;;4926522;29;20202;-80
2023/04/27 05:51:06;;;;;;;2.70;1.37;;;13.20;85.70;;;;;;4921432;29;20665;-79
2023/04/27 05:53:35;;;;;;;2.60;1.50;;;13.20;85.70;;;;;;4936529;29;20262;-80
2023/04/27 05:56:05;;;;;;;5.43;2.40;;;13.30;85.60;;;;;;4931189;29;20262;-80
2023/04/27 05:58:35;;;;;;;4.00;2.03;;;13.30;85.40;;;;;;4919072;29;21364;-81
2023/04/27 06:01:07;;;;;;;3.87;1.47;;;13.30;85.10;;;;;;4917491;29;20203;-78
2023/04/27 06:03:35;;;;;;;1.60;1.10;;;13.40;85.00;;;;;;4921707;29;20258;-81
2023/04/27 06:06:04;;;;;;;5.30;1.20;;;13.40;85.10;;;;;;4929414;29;20202;-81
2023/04/27 06:08:36;;;;;;;6.77;1.20;;;13.40;84.80;;;;;;4928571;29;20714;-79
2023/04/27 06:11:07;;;;;;;1.80;1.20;;;13.40;84.20;;;;;;4923684;29;20937;-80
2023/04/27 06:13:36;;;;;;;2.30;1.00;;;13.50;84.20;;;;;;4928523;29;20229;-79
2023/04/27 06:16:05;;;;;;;8.20;1.70;;;13.50;84.20;;;;;;4927146;29;20210;-81
2023/04/27 06:18:34;;;;;;;1.03;0.90;;;13.40;83.80;;;;;;4931425;29;20219;-79
2023/04/27 06:21:02;;;;;;;2.77;1.43;;;13.50;83.70;;;;;;4928511;29;20657;-80
2023/04/27 06:23:31;;;;;;;2.03;1.10;;;13.50;83.20;;;;;;4926328;29;20203;-81
2023/04/27 06:26:00;;;;;;;9.60;2.63;;;13.40;83.10;;;;;;4930774;29;20266;-77
2023/04/27 06:28:29;;;;;;;1.70;1.33;;;13.40;83.20;;;;;;4926526;29;20192;-80
2023/04/27 06:30:59;;;;;;;1.50;1.03;;;13.40;82.90;;;;;;4928597;29;20279;-81
2023/04/27 06:33:56;;;;;;;0.87;0.87;;;13.40;82.50;;;;;;4925495;29;20211;-83
2023/04/27 06:36:26;;;;;;;2.07;0.93;;;13.50;82.70;;;;;;4913245;29;20203;-80
2023/04/27 06:38:55;;;;;;;2.23;1.53;;;13.50;82.70;;;;;;4934024;29;20215;-81
2023/04/27 06:41:24;;;;;;;0.80;0.80;;;13.50;82.10;;;;;;4931261;29;20238;-80
2023/04/27 06:43:53;;;;;;;3.33;1.13;;;13.50;81.80;;;;;;4934523;29;20207;-81
2023/04/27 06:46:22;;;;;;;2.13;1.07;;;13.60;82.20;;;;;;4927772;29;20332;-79
2023/04/27 06:48:51;;;;;;;1.90;1.17;;;13.60;81.70;;;;;;4934321;29;20227;-80
2023/04/27 06:51:58;;;;;;;1.73;1.30;;;13.70;82.00;;;;;;4930253;29;21024;-81
2023/04/27 06:54:44;;;;;;;1.23;1.07;;;13.80;82.40;;;;;;4919927;29;20206;-81
2023/04/27 06:57:21;;;;;;;1.20;1.07;;;13.70;81.10;;;;;;4926064;29;20222;-80
2023/04/27 06:59:51;;;;;;;1.30;1.03;;;13.80;81.00;;;;;;4928635;28;20227;-81
2023/04/27 07:05:58;;;;;;;1.90;1.33;;;13.90;80.50;;;;;;4833187;29;20243;-75
2023/04/27 07:08:36;;;;;;;1.93;1.47;;;13.90;79.50;;;;;;4910128;29;20649;-75
2023/04/27 07:11:05;;;;;;;5.93;1.93;;;14.00;78.50;;;;;;4928615;29;20203;-77
2023/04/27 07:13:33;;;;;;;1.57;1.10;;;14.10;78.80;;;;;;4932421;29;20567;-75
2023/04/27 07:16:01;;;;;;;1.17;1.07;;;14.10;78.60;;;;;;4932980;29;20214;-78
2023/04/27 07:18:30;;;;;;;1.30;1.20;;;14.20;78.90;;;;;;4932552;29;20219;-77
2023/04/27 07:20:59;;;;;;;1.47;0.93;;;14.30;78.50;;;;;;4932746;29;20207;-77
2023/04/27 07:23:28;;;;;;;2.23;0.93;;;14.40;78.30;;;;;;4928028;29;20222;-76
2023/04/27 07:26:02;;;;;;;2.20;1.13;;;14.40;77.40;;;;;;4936369;29;20232;-78
2023/04/27 07:28:34;;;;;;;1.80;0.93;;;14.40;77.00;;;;;;4934102;29;20544;-78
2023/04/27 07:31:05;;;;;;;6.83;1.37;;;14.50;77.50;;;;;;4928444;29;20243;-77
2023/04/27 07:33:34;;;;;;;1.27;0.93;;;14.50;77.40;;;;;;4926749;29;20199;-77
2023/04/27 07:36:04;;;;;;;3.87;1.37;;;14.60;77.30;;;;;;4929788;29;20210;-76
2023/04/27 07:38:32;;;;;;;1.80;0.50;;;14.50;77.70;;;;;;4931345;29;20211;-78
2023/04/27 07:41:01;;;;;;;1.07;0.80;;;14.60;77.20;;;;;;4923180;29;20582;-77
2023/04/27 07:43:32;;;;;;;3.73;2.17;;;14.60;76.60;;;;;;4931657;29;20215;-74
2023/04/27 07:46:00;;;;;;;1.10;0.90;;;14.60;77.70;;;;;;4931082;29;20203;-76
2023/04/27 07:48:29;;;;;;;1.40;0.73;;;14.60;77.10;;;;;;4925971;29;20293;-78
2023/04/27 07:50:59;;;;;;;1.93;1.13;;;14.60;77.20;;;;;;4929232;29;20257;-77
2023/04/27 07:53:28;;;;;;;1.50;1.10;;;14.60;77.00;;;;;;4935413;29;22366;-79
2023/04/27 07:55:57;;;;;;;3.27;1.03;;;14.60;76.20;;;;;;4932769;29;20215;-79
2023/04/27 07:58:25;;;;;;;2.73;1.10;;;14.70;76.80;;;;;;4932985;29;20223;-77
2023/04/27 08:00:53;;;;;;;1.53;1.10;;;14.70;77.40;;;;;;4928029;29;20214;-76
2023/04/27 08:03:22;;;;;;;2.70;1.33;;;14.70;77.00;;;;;;4934195;29;20655;-75
2023/04/27 08:05:51;;;;;;;1.23;0.73;;;14.70;77.10;;;;;;4926120;29;20211;-78
2023/04/27 08:08:20;;;;;;;1.83;1.03;;;14.60;76.10;;;;;;4932218;29;20226;-77
2023/04/27 08:10:57;;;;;;;2.40;0.83;;;14.60;76.80;;;;;;4926830;29;20259;-74
2023/04/27 08:13:26;;;;;;;1.43;0.90;;;14.60;76.80;;;;;;4930028;29;20610;-75
2023/04/27 08:15:57;;;;;;;1.07;0.77;;;14.60;76.10;;;;;;4929581;29;20617;-76
2023/04/27 08:18:26;;;;;;;2.33;0.97;;;14.60;76.30;;;;;;4931543;29;21075;-75
2023/04/27 08:20:54;;;;;;;1.77;1.00;;;14.50;76.40;;;;;;4926784;29;20207;-75
2023/04/27 08:23:26;;;;;;;3.57;1.47;;;14.60;77.00;;;;;;4931027;29;20711;-75
2023/04/27 08:25:54;;;;;;;1.10;1.00;;;14.60;77.10;;;;;;4919086;29;20278;-74
2023/04/27 08:28:24;;;;;;;0.83;0.80;;;14.60;77.20;;;;;;4929697;29;20621;-76
2023/04/27 08:30:52;;;;;;;1.33;1.00;;;14.70;77.50;;;;;;4920635;29;20587;-78
2023/04/27 08:33:21;;;;;;;5.37;1.30;;;14.60;76.80;;;;;;4921152;29;20771;-75
2023/04/27 08:35:49;;;;;;;2.20;1.10;;;14.70;77.10;;;;;;4922916;29;20242;-76
2023/04/27 08:38:18;;;;;;;1.67;0.97;;;14.70;76.60;;;;;;4925109;29;20219;-76
2023/04/27 08:40:46;;;;;;;1.07;0.83;;;14.80;76.70;;;;;;4922202;29;20199;-75
2023/04/27 08:43:15;;;;;;;1.63;1.10;;;14.80;76.50;;;;;;4930549;29;20675;-78
2023/04/27 08:45:50;;;;;;;1.13;0.90;;;14.90;76.30;;;;;;4926434;29;20202;-76
2023/04/27 08:48:19;;;;;;;2.77;1.63;;;15.00;76.20;;;;;;4923576;29;20632;-76
2023/04/27 08:50:50;;;;;;;2.23;1.07;;;14.90;75.20;;;;;;4930085;29;20576;-75
2023/04/27 08:53:20;;;;;;;2.87;1.37;;;15.00;75.20;;;;;;4921375;29;20724;-74
2023/04/27 08:55:48;;;;;;;1.87;1.10;;;15.10;75.00;;;;;;4919715;29;20566;-76
2023/04/27 08:58:17;;;;;;;4.90;1.13;;;15.10;75.10;;;;;;4922044;29;20323;-77
2023/04/27 09:00:48;;;;;;;4.37;1.47;;;15.20;75.20;;;;;;4925105;29;20198;-77
2023/04/27 09:03:22;;;;;;;1.43;0.90;;;15.30;75.10;;;;;;4922103;29;20231;-77
2023/04/27 09:05:51;;;;;;;1.80;0.60;;;15.40;74.90;;;;;;4927590;29;20195;-76
2023/04/27 09:08:43;;;;;;;4.33;0.83;;;15.50;75.20;;;;;;4929811;29;20211;-76
2023/04/27 09:11:11;;;;;;;0.97;0.83;;;15.50;74.60;;;;;;4925196;29;20206;-77
2023/04/27 09:13:43;;;;;;;3.10;1.47;;;15.60;75.40;;;;;;4926715;29;20251;-76
2023/04/27 09:16:14;;;;;;;1.20;1.07;;;15.70;74.80;;;;;;4926030;29;20387;-77
2023/04/27 09:18:55;;;;;;;2.50;0.93;;;15.80;74.50;;;;;;4927877;29;20207;-77
2023/04/27 09:21:25;;;;;;;1.40;1.17;;;15.70;73.80;;;;;;4926423;29;20206;-77
2023/04/27 09:23:54;;;;;;;3.97;1.30;;;15.90;74.00;;;;;;4934412;29;20206;-77
2023/04/27 09:26:23;;;;;;;1.10;1.00;;;15.90;74.20;;;;;;4928388;29;20643;-76
2023/04/27 09:28:55;;;;;;;5.30;1.00;;;16.00;74.30;;;;;;4929982;29;20230;-77
2023/04/27 09:31:33;;;;;;;2.33;1.17;;;16.00;74.20;;;;;;4919409;29;20635;-76
2023/04/27 09:34:02;;;;;;;1.90;0.93;;;16.00;73.40;;;;;;4924069;29;20213;-77
2023/04/27 09:36:32;;;;;;;1.20;0.87;;;16.00;73.10;;;;;;4930219;29;20204;-78
2023/04/27 09:39:04;;;;;;;4.10;0.90;;;16.00;73.40;;;;;;4929004;29;20615;-78
2023/04/27 09:41:33;;;;;;;2.43;1.53;;;16.00;73.40;;;;;;4925473;29;20199;-77
2023/04/27 09:44:02;;;;;;;2.60;1.03;;;16.00;73.00;;;;;;4927147;29;20258;-77
2023/04/27 09:46:49;;;;;;;3.40;1.23;;;16.00;74.10;;;;;;4930512;29;20452;-76
2023/04/27 09:49:20;;;;;;;3.47;1.03;;;16.00;73.80;;;;;;4924914;29;20563;-79
2023/04/27 09:51:48;;;;;;;3.53;1.33;;;16.00;73.70;;;;;;4925822;29;20223;-76
2023/04/27 09:54:17;;;;;;;1.87;1.23;;;16.00;74.80;;;;;;4928474;29;20203;-78
2023/04/27 09:56:55;;;;;;;1.97;0.87;;;16.10;75.00;;;;;;4927830;29;20353;-77
2023/04/27 09:59:48;;;;;;;2.73;0.90;;;16.20;76.20;;;;;;4926700;29;20596;-76
2023/04/27 10:02:18;;;;;;;2.33;1.17;;;16.30;74.80;;;;;;4925403;29;20656;-76
2023/04/27 10:05:20;;;;;;;1.60;0.93;;;16.40;73.70;;;;;;4921105;29;20195;-78
2023/04/27 10:07:49;;;;;;;2.40;1.40;;;16.40;73.90;;;;;;4926931;29;20559;-79
2023/04/27 10:10:19;;;;;;;4.10;1.43;;;16.40;73.70;;;;;;4930427;29;20213;-79
2023/04/27 10:12:56;;;;;;;1.73;0.80;;;16.50;74.00;;;;;;4927593;29;20223;-78
2023/04/27 10:15:29;;;;;;;0.97;0.87;;;16.50;73.70;;;;;;4931526;29;20306;-81
2023/04/27 10:18:04;;;;;;;1.40;1.13;;;16.50;72.80;;;;;;4930366;29;20209;-79
2023/04/27 10:20:37;;;;;;;2.03;1.17;;;16.60;73.30;;;;;;4924976;29;20704;-80
2023/04/27 10:23:05;;;;;;;3.47;1.20;;;16.60;71.50;;;;;;4924524;29;20195;-78
2023/04/27 10:25:41;;;;;;;3.07;1.03;;;16.70;71.90;;;;;;4928362;29;20203;-78
2023/04/27 10:28:27;;;;;;;2.03;1.30;;;16.80;72.50;;;;;;4929528;29;20195;-77
2023/04/27 10:31:52;;;;;;;1.83;1.27;;;16.90;73.60;;;;;;4930378;29;20700;-80
2023/04/27 10:34:21;;;;;;;1.23;1.10;;;16.90;71.50;;;;;;4932427;29;20668;-76
2023/04/27 10:37:05;;;;;;;1.60;1.20;;;16.90;71.40;;;;;;4929588;29;20254;-77
2023/04/27 10:39:37;;;;;;;2.77;1.47;;;17.00;72.00;;;;;;4931516;29;20219;-78
2023/04/27 10:42:27;;;;;;;1.30;1.13;;;17.00;71.40;;;;;;4930064;29;20656;-78
2023/04/27 10:44:58;;;;;;;3.00;1.20;;;17.10;70.90;;;;;;4934598;29;20203;-77
2023/04/27 10:47:39;;;;;;;1.70;1.03;;;17.10;70.10;;;;;;4929591;29;20230;-74
2023/04/27 10:50:10;;;;;;;0.93;0.87;;;17.10;69.10;;;;;;4924562;29;20206;-77
2023/04/27 10:52:42;;;;;;;2.57;1.13;;;17.20;70.90;;;;;;4920910;29;20222;-77
2023/04/27 10:55:15;;;;;;;0.87;0.73;;;17.20;71.20;;;;;;4931132;29;20195;-76
2023/04/27 10:57:48;;;;;;;2.30;0.93;;;17.10;69.80;;;;;;4925312;29;20195;-78
2023/04/27 11:00:34;;;;;;;1.57;0.90;;;17.10;70.00;;;;;;4926092;29;20233;-77
2023/04/27 11:03:15;;;;;;;2.10;0.93;;;17.10;70.40;;;;;;4934922;29;20195;-77
2023/04/27 11:05:44;;;;;;;1.27;0.77;;;17.20;69.40;;;;;;4925725;29;20207;-77
2023/04/27 11:08:16;;;;;;;6.43;1.13;;;17.30;68.60;;;;;;4920029;29;20625;-76
2023/04/27 11:10:49;;;;;;;20.30;1.30;;;17.40;68.80;;;;;;4925322;28;20199;-79
2023/04/27 11:13:19;;;;;;;3.73;1.20;;;17.50;68.00;;;;;;4924687;29;20191;-77
2023/04/27 11:15:53;;;;;;;0.77;0.77;;;17.60;66.50;;;;;;4925660;29;20203;-79
2023/04/27 11:18:23;;;;;;;0.90;0.70;;;17.70;66.70;;;;;;4930557;29;20287;-76
2023/04/27 11:20:53;;;;;;;1.10;0.83;;;17.80;66.10;;;;;;4925883;29;20219;-75
2023/04/27 11:23:35;;;;;;;1.33;0.90;;;17.90;65.40;;;;;;4925739;29;20929;-76
2023/04/27 11:26:13;;;;;;;1.43;0.90;;;18.00;65.60;;;;;;4931037;29;20660;-76
2023/04/27 11:28:42;;;;;;;2.43;1.00;;;18.00;64.10;;;;;;4935026;29;20203;-76
2023/04/27 11:31:11;;;;;;;3.70;1.27;;;18.00;64.40;;;;;;4926854;29;20231;-76
2023/04/27 11:33:47;;;;;;;2.30;0.90;;;18.00;65.20;;;;;;4936763;29;20211;-76
2023/04/27 11:36:25;;;;;;;1.00;0.90;;;18.00;64.50;;;;;;4930600;29;20195;-76
2023/04/27 11:38:59;;;;;;;4.33;1.10;;;18.20;65.90;;;;;;4930130;29;20203;-75
2023/04/27 11:41:34;;;;;;;1.00;0.73;;;18.30;65.20;;;;;;4930553;29;20671;-77
2023/04/27 11:44:07;;;;;;;1.57;0.80;;;18.30;64.30;;;;;;4932539;29;20199;-76
2023/04/27 11:46:36;;;;;;;1.20;1.00;;;18.30;64.00;;;;;;4927808;29;20660;-76
2023/04/27 11:49:20;;;;;;;2.37;1.23;;;18.20;63.60;;;;;;4922595;29;20231;-79
2023/04/27 11:51:49;;;;;;;1.37;0.90;;;18.10;63.70;;;;;;4924486;29;20602;-77
2023/04/27 11:54:19;;;;;;;1.10;0.90;;;18.10;63.70;;;;;;4929947;29;20209;-76
2023/04/27 11:56:48;;;;;;;0.93;0.70;;;18.10;64.30;;;;;;4924860;29;20661;-77
2023/04/27 11:59:21;;;;;;;1.00;0.83;;;18.10;64.30;;;;;;4928212;29;20263;-77
2023/04/27 12:02:02;;;;;;;8.90;0.87;;;18.00;64.10;;;;;;4926330;29;20207;-77
2023/04/27 12:04:34;;;;;;;1.23;0.60;;;18.00;63.40;;;;;;4930108;29;20731;-77
2023/04/27 12:07:12;;;;;;;1.13;0.80;;;17.90;63.40;;;;;;4925940;29;20270;-75
2023/04/27 12:09:42;;;;;;;2.33;1.53;;;18.00;64.60;;;;;;4928487;29;20248;-76
2023/04/27 12:12:11;;;;;;;0.90;0.60;;;18.00;64.60;;;;;;4930819;29;20199;-75
2023/04/27 12:14:40;;;;;;;1.23;1.00;;;18.20;65.30;;;;;;4931785;29;20752;-75
2023/04/27 12:17:08;;;;;;;0.97;0.80;;;18.30;64.90;;;;;;4922381;29;20874;-75
2023/04/27 12:19:37;;;;;;;2.93;0.97;;;18.30;64.30;;;;;;4923854;29;20629;-75
2023/04/27 12:22:08;;;;;;;1.77;1.03;;;18.40;63.50;;;;;;4926939;29;20223;-76
2023/04/27 12:24:39;;;;;;;0.97;0.80;;;18.50;63.30;;;;;;4925036;29;20286;-75
2023/04/27 12:27:10;;;;;;;0.83;0.63;;;18.50;63.70;;;;;;4929922;29;20203;-75
2023/04/27 12:29:40;;;;;;;1.67;0.70;;;18.60;63.80;;;;;;4928556;29;20237;-75
2023/04/27 12:32:09;;;;;;;0.57;0.53;;;18.40;63.30;;;;;;4926152;29;20201;-76
2023/04/27 12:34:38;;;;;;;1.27;0.60;;;18.40;63.80;;;;;;4929647;29;20656;-75
2023/04/27 12:37:06;;;;;;;1.27;1.17;;;18.40;64.30;;;;;;4929579;29;20199;-75
2023/04/27 12:39:35;;;;;;;1.37;0.83;;;18.30;64.50;;;;;;4931584;29;20208;-77
2023/04/27 12:42:11;;;;;;;1.40;0.60;;;18.20;63.80;;;;;;4929033;29;20221;-75
2023/04/27 12:44:40;;;;;;;0.87;0.60;;;18.20;63.90;;;;;;4930345;29;20199;-76
2023/04/27 12:47:08;;;;;;;1.90;0.70;;;18.10;64.00;;;;;;4924960;29;20306;-76
2023/04/27 12:49:36;;;;;;;1.00;0.90;;;18.10;64.50;;;;;;4921175;29;20767;-76
2023/04/27 12:52:05;;;;;;;0.70;0.50;;;18.10;64.90;;;;;;4926476;29;20203;-76
2023/04/27 12:54:33;;;;;;;0.43;0.43;;;18.10;65.20;;;;;;4931314;29;20211;-78
2023/04/27 12:57:05;;;;;;;1.60;0.90;;;18.00;64.70;;;;;;4930855;29;20210;-75
2023/04/27 12:59:35;;;;;;;0.53;0.53;;;18.00;64.80;;;;;;4929148;29;20663;-77
2023/04/27 13:02:04;;;;;;;1.10;0.60;;;17.90;64.40;;;;;;4930801;29;20202;-76
2023/04/27 13:04:33;;;;;;;2.23;1.13;;;17.90;64.80;;;;;;4928589;29;20214;-76
2023/04/27 13:07:02;;;;;;;0.90;0.70;;;17.90;65.10;;;;;;4925458;29;20204;-77
2023/04/27 13:09:30;;;;;;;0.40;0.40;;;17.80;65.80;;;;;;4926516;29;20207;-78